createdAt,value
2022-10-30T00:00:28.064Z,6.75
2022-10-30T00:03:19.366Z,3.17
2022-10-30T00:05:51.718Z,32.67
2022-10-30T00:08:23.105Z,51.47
2022-10-30T00:10:52.847Z,54.42
2022-10-30T00:13:23.235Z,27.15
2022-10-30T00:15:54.113Z,38.80
2022-10-30T00:18:24.945Z,34.63
2022-10-30T00:20:54.252Z,88.10
2022-10-30T00:23:23.617Z,62.55
2022-10-30T00:25:53.039Z,22.33
2022-10-30T00:28:22.343Z,32.67
2022-10-30T00:30:51.888Z,23.15
2022-10-30T00:33:21.072Z,14.73
2022-10-30T00:35:52.414Z,64.38
2022-10-30T00:38:21.999Z,50.35
2022-10-30T00:40:51.711Z,19.05
2022-10-30T00:43:36.815Z,30.90
2022-10-30T00:46:15.010Z,19.98
2022-10-30T00:48:46.920Z,14.75
2022-10-30T00:51:18.194Z,3.65
2022-10-30T00:53:49.100Z,7.65
2022-10-30T00:56:22.239Z,4.63
2022-10-30T00:58:55.577Z,6.43
2022-10-30T01:01:28.466Z,9.50
2022-10-30T01:04:01.571Z,7.97
2022-10-30T01:06:36.999Z,9.32
2022-10-30T01:09:07.029Z,35.42
2022-10-30T01:11:36.867Z,30.27
2022-10-30T01:14:09.811Z,16.42
2022-10-30T01:16:59.007Z,17.30
2022-10-30T01:19:41.054Z,8.32
2022-10-30T01:22:25.078Z,6.10
2022-10-30T01:25:04.810Z,6.55
2022-10-30T01:27:46.273Z,7.22
2022-10-30T01:30:34.438Z,4.18
2022-10-30T01:33:17.652Z,7.18
2022-10-30T01:35:53.902Z,7.55
2022-10-30T01:38:29.419Z,6.47
2022-10-30T01:40:58.940Z,10.77
2022-10-30T01:43:29.130Z,5.97
2022-10-30T01:46:26.420Z,6.80
2022-10-30T01:49:17.379Z,4.18
2022-10-30T01:51:58.507Z,7.22
2022-10-30T01:54:40.341Z,7.90
2022-10-30T01:57:19.416Z,4.22
2022-10-30T01:59:56.936Z,6.53
2022-10-30T02:02:26.458Z,4.78
2022-10-30T02:04:57.775Z,4.70
2022-10-30T02:07:27.278Z,7.65
2022-10-30T02:09:58.203Z,7.00
2022-10-30T02:12:30.763Z,7.25
2022-10-30T02:15:03.028Z,6.38
2022-10-30T02:17:32.457Z,12.20
2022-10-30T02:20:01.796Z,2.95
2022-10-30T02:22:33.682Z,10.10
2022-10-30T02:25:03.417Z,3.67
2022-10-30T02:27:32.659Z,6.07
2022-10-30T02:30:02.078Z,6.07
2022-10-30T02:32:31.716Z,9.32
2022-10-30T02:35:01.117Z,8.18
2022-10-30T02:37:32.793Z,6.35
2022-10-30T02:40:02.350Z,3.80
2022-10-30T02:42:31.908Z,6.47
2022-10-30T02:45:01.110Z,5.43
2022-10-30T02:47:31.241Z,7.68
2022-10-30T02:50:00.572Z,3.13
2022-10-30T02:52:29.784Z,9.60
2022-10-30T02:55:00.774Z,5.10
2022-10-30T02:57:32.056Z,4.80
2022-10-30T03:00:01.781Z,6.72
2022-10-30T03:02:32.961Z,9.10
2022-10-30T03:05:02.975Z,10.18
2022-10-30T03:07:32.316Z,9.93
2022-10-30T03:10:02.958Z,12.43
2022-10-30T03:12:33.867Z,12.15
2022-10-30T03:15:03.100Z,7.65
2022-10-30T03:17:32.640Z,5.22
2022-10-30T03:20:02.893Z,9.30
2022-10-30T03:22:32.077Z,7.15
2022-10-30T03:25:04.547Z,6.25
2022-10-30T03:27:35.825Z,6.60
2022-10-30T03:35:29.091Z,9.23
2022-10-30T03:37:58.704Z,5.32
2022-10-30T03:40:29.307Z,8.88
2022-10-30T03:42:58.943Z,7.90
2022-10-30T03:45:28.525Z,5.53
2022-10-30T03:47:58.151Z,3.75
2022-10-30T03:50:27.897Z,3.40
2022-10-30T03:52:57.810Z,7.28
2022-10-30T03:55:28.886Z,7.15
2022-10-30T03:57:58.997Z,4.50
2022-10-30T04:00:28.643Z,2.90
2022-10-30T04:03:01.762Z,5.22
2022-10-30T04:05:33.746Z,5.70
2022-10-30T04:08:08.692Z,12.15
2022-10-30T04:10:44.366Z,9.10
2022-10-30T04:13:17.589Z,5.32
2022-10-30T04:15:57.884Z,4.53
2022-10-30T04:18:28.905Z,6.25
2022-10-30T04:21:01.296Z,7.40
2022-10-30T04:23:31.051Z,14.23
2022-10-30T04:26:03.849Z,7.22
2022-10-30T04:28:33.881Z,9.30
2022-10-30T04:31:03.594Z,7.97
2022-10-30T04:33:33.709Z,9.02
2022-10-30T04:36:03.501Z,8.23
2022-10-30T04:38:34.410Z,10.93
2022-10-30T04:41:07.141Z,9.05
2022-10-30T04:43:56.264Z,15.15
2022-10-30T04:46:25.983Z,12.55
2022-10-30T04:48:57.959Z,11.73
2022-10-30T04:51:27.558Z,8.75
2022-10-30T04:53:57.036Z,12.02
2022-10-30T04:56:27.751Z,8.13
2022-10-30T04:58:57.343Z,10.82
2022-10-30T05:01:26.826Z,13.93
2022-10-30T05:03:59.095Z,9.65
2022-10-30T05:06:31.545Z,9.50
2022-10-30T05:09:01.079Z,9.43
2022-10-30T05:11:37.191Z,11.48
2022-10-30T05:14:06.510Z,13.35
2022-10-30T05:16:36.069Z,9.50
2022-10-30T05:19:07.396Z,12.43
2022-10-30T05:21:37.701Z,9.13
2022-10-30T05:24:08.634Z,9.38
2022-10-30T05:26:46.241Z,10.50
2022-10-30T05:29:15.819Z,11.30
2022-10-30T05:31:45.389Z,9.40
2022-10-30T05:34:38.242Z,16.52
2022-10-30T05:37:07.778Z,11.52
2022-10-30T05:39:38.802Z,12.27
2022-10-30T05:42:17.382Z,12.68
2022-10-30T05:45:00.292Z,7.95
2022-10-30T05:47:32.002Z,13.25
2022-10-30T05:50:01.297Z,12.40
2022-10-30T05:52:31.329Z,14.52
2022-10-30T05:55:02.370Z,14.35
2022-10-30T05:57:59.257Z,16.58
2022-10-30T06:00:29.643Z,15.38
2022-10-30T06:03:03.122Z,14.95
2022-10-30T06:05:35.719Z,16.35
2022-10-30T06:08:05.981Z,20.40
2022-10-30T06:10:36.951Z,13.63
2022-10-30T06:13:16.953Z,18.40
2022-10-30T06:15:59.357Z,18.45
2022-10-30T06:18:38.232Z,20.08
2022-10-30T06:21:12.610Z,17.75
2022-10-30T06:24:08.035Z,16.08
2022-10-30T06:27:03.450Z,11.55
2022-10-30T06:29:34.407Z,16.17
2022-10-30T06:32:06.564Z,14.68
2022-10-30T06:34:36.753Z,16.55
2022-10-30T06:37:06.564Z,11.52
2022-10-30T06:39:36.032Z,14.18
2022-10-30T06:42:22.485Z,19.02
2022-10-30T06:45:11.015Z,17.60
2022-10-30T06:47:40.573Z,13.23
2022-10-30T06:50:12.411Z,15.95
2022-10-30T06:52:42.304Z,13.05
2022-10-30T06:55:12.340Z,14.82
2022-10-30T06:58:02.257Z,13.80
2022-10-30T07:01:01.014Z,19.77
2022-10-30T07:03:37.229Z,22.65
2022-10-30T07:06:07.199Z,28.48
2022-10-30T07:08:37.073Z,33.75
2022-10-30T07:11:06.992Z,21.20
2022-10-30T07:13:56.509Z,11.35
2022-10-30T07:16:39.321Z,12.93
2022-10-30T07:19:08.663Z,9.80
2022-10-30T07:21:38.346Z,13.35
2022-10-30T07:24:09.569Z,11.07
2022-10-30T07:26:52.047Z,16.67
2022-10-30T07:29:34.248Z,13.30
2022-10-30T07:32:24.540Z,14.10
2022-10-30T07:35:14.893Z,9.05
2022-10-30T07:38:12.971Z,13.25
2022-10-30T07:40:54.711Z,12.35
2022-10-30T07:43:46.270Z,17.80
2022-10-30T07:46:50.945Z,12.65
2022-10-30T07:49:47.837Z,8.30
2022-10-30T07:52:17.757Z,10.15
2022-10-30T07:54:50.639Z,11.38
2022-10-30T07:57:43.986Z,15.43
2022-10-30T08:00:42.681Z,12.30
2022-10-30T08:03:22.288Z,11.95
2022-10-30T08:06:21.642Z,9.68
2022-10-30T08:08:54.201Z,12.38
2022-10-30T08:11:31.237Z,13.68
2022-10-30T08:14:02.415Z,18.20
2022-10-30T08:16:32.263Z,11.52
2022-10-30T08:19:01.629Z,10.63
2022-10-30T08:21:33.382Z,10.15
2022-10-30T08:24:09.129Z,9.73
2022-10-30T08:26:38.874Z,7.30
2022-10-30T08:29:08.371Z,5.93
2022-10-30T08:31:38.027Z,11.32
2022-10-30T08:34:32.505Z,10.00
2022-10-30T08:37:08.161Z,5.28
2022-10-30T08:39:37.864Z,7.95
2022-10-30T08:42:27.487Z,5.53
2022-10-30T08:44:59.554Z,3.85
2022-10-30T08:47:47.702Z,3.92
2022-10-30T08:50:17.477Z,5.13
2022-10-30T08:52:50.903Z,3.78
2022-10-30T08:55:23.582Z,4.32
2022-10-30T08:57:53.018Z,4.70
2022-10-30T09:00:22.549Z,3.42
2022-10-30T09:03:29.856Z,6.97
2022-10-30T09:06:33.441Z,5.05
2022-10-30T09:09:39.579Z,4.80
2022-10-30T09:12:09.878Z,3.58
2022-10-30T09:14:46.162Z,2.58
2022-10-30T09:17:15.708Z,5.38
2022-10-30T09:22:31.933Z,4.78
2022-10-30T09:25:02.919Z,5.93
2022-10-30T09:27:48.907Z,8.07
2022-10-30T09:30:20.597Z,4.47
2022-10-30T09:32:58.717Z,5.97
2022-10-30T09:35:48.527Z,2.97
2022-10-30T09:38:17.805Z,4.35
2022-10-30T09:41:10.553Z,4.53
2022-10-30T09:43:52.363Z,4.60
2022-10-30T09:46:34.288Z,8.98
2022-10-30T09:49:34.368Z,8.75
2022-10-30T09:52:23.537Z,7.20
2022-10-30T09:55:16.481Z,4.63
2022-10-30T09:57:56.363Z,4.30
2022-10-30T10:00:32.190Z,5.20
2022-10-30T10:03:18.116Z,3.78
2022-10-30T10:06:14.028Z,3.35
2022-10-30T10:09:00.532Z,3.15
2022-10-30T10:11:54.810Z,6.18
2022-10-30T10:14:29.379Z,3.38
2022-10-30T10:17:02.328Z,3.05
2022-10-30T10:19:37.149Z,2.42
2022-10-30T10:22:14.922Z,9.55
2022-10-30T10:24:47.692Z,5.35
2022-10-30T10:27:27.902Z,3.30
2022-10-30T10:30:05.907Z,4.07
2022-10-30T10:32:58.701Z,5.70
2022-10-30T10:35:54.757Z,5.53
2022-10-30T10:38:38.231Z,4.15
2022-10-30T10:41:20.002Z,5.18
2022-10-30T10:44:05.178Z,3.35
2022-10-30T10:47:07.211Z,5.07
2022-10-30T10:49:58.253Z,5.38
2022-10-30T10:52:37.031Z,3.13
2022-10-30T10:55:11.718Z,4.07
2022-10-30T10:57:43.518Z,3.42
2022-10-30T11:00:18.866Z,7.55
2022-10-30T11:02:58.657Z,5.53
2022-10-30T11:05:34.895Z,6.55
2022-10-30T11:08:13.472Z,7.72
2022-10-30T11:10:42.861Z,7.78
2022-10-30T11:13:14.683Z,7.15
2022-10-30T11:15:56.502Z,6.80
2022-10-30T11:18:27.518Z,6.75
2022-10-30T11:21:02.549Z,5.32
2022-10-30T11:23:40.983Z,9.05
2022-10-30T11:26:29.610Z,7.53
2022-10-30T11:29:03.899Z,16.73
2022-10-30T11:31:40.219Z,11.70
2022-10-30T11:34:30.085Z,8.82
2022-10-30T11:36:59.380Z,6.60
2022-10-30T11:39:30.796Z,5.95
2022-10-30T11:42:04.763Z,5.18
2022-10-30T11:44:37.896Z,5.85
2022-10-30T11:47:08.747Z,7.55
2022-10-30T11:49:46.028Z,6.93
2022-10-30T11:52:19.276Z,8.50
2022-10-30T11:54:53.371Z,6.15
2022-10-30T11:57:32.662Z,5.30
2022-10-30T12:00:05.673Z,4.85
2022-10-30T12:02:44.373Z,5.35
2022-10-30T12:05:36.473Z,8.15
2022-10-30T12:08:20.643Z,7.35
2022-10-30T12:11:01.829Z,8.77
2022-10-30T12:13:40.481Z,4.97
2022-10-30T12:16:16.743Z,8.73
2022-10-30T12:19:00.860Z,8.52
2022-10-30T12:21:38.040Z,9.23
2022-10-30T12:24:14.819Z,9.77
2022-10-30T12:26:49.955Z,6.43
2022-10-30T12:29:22.224Z,7.25
2022-10-30T12:31:58.212Z,5.85
2022-10-30T12:34:35.197Z,7.47
2022-10-30T12:37:12.999Z,8.43
2022-10-30T12:39:57.722Z,7.38
2022-10-30T12:42:28.167Z,4.43
2022-10-30T12:45:09.025Z,5.03
2022-10-30T12:47:44.381Z,4.32
2022-10-30T12:50:22.093Z,7.25
2022-10-30T12:53:01.719Z,12.52
2022-10-30T12:55:38.244Z,7.78
2022-10-30T12:58:20.078Z,9.93
2022-10-30T13:00:56.024Z,9.38
2022-10-30T13:03:30.878Z,10.48
2022-10-30T13:06:04.479Z,5.72
2022-10-30T13:08:39.996Z,6.90
2022-10-30T13:13:46.106Z,4.53
2022-10-30T13:16:20.456Z,5.03
2022-10-30T13:18:50.136Z,6.40
2022-10-30T13:21:26.490Z,5.85
2022-10-30T13:24:03.269Z,5.82
2022-10-30T13:26:40.574Z,7.18
2022-10-30T13:29:23.210Z,6.30
2022-10-30T13:32:07.825Z,13.65
2022-10-30T13:34:47.026Z,6.10
2022-10-30T13:37:23.370Z,9.02
2022-10-30T13:40:06.618Z,28.20
2022-10-30T13:42:52.046Z,16.95
2022-10-30T13:45:52.430Z,30.38
2022-10-30T13:48:31.588Z,18.67
2022-10-30T13:51:23.932Z,10.90
2022-10-30T13:54:02.964Z,8.82
2022-10-30T13:56:34.797Z,10.63
2022-10-30T13:59:15.682Z,9.82
2022-10-30T14:01:55.306Z,9.43
2022-10-30T14:04:35.167Z,8.60
2022-10-30T14:07:20.182Z,7.35
2022-10-30T14:09:56.094Z,6.70
2022-10-30T14:12:51.587Z,8.77
2022-10-30T14:15:33.032Z,7.53
2022-10-30T14:18:28.253Z,13.63
2022-10-30T14:20:59.495Z,11.57
2022-10-30T14:23:35.168Z,11.85
2022-10-30T14:26:22.731Z,7.55
2022-10-30T14:28:56.384Z,8.73
2022-10-30T14:31:36.707Z,9.77
2022-10-30T14:34:06.349Z,7.32
2022-10-30T14:36:51.016Z,10.85
2022-10-30T14:39:31.281Z,8.03
2022-10-30T14:42:17.381Z,11.77
2022-10-30T14:45:01.900Z,13.57
2022-10-30T14:47:54.406Z,8.80
2022-10-30T14:50:48.118Z,10.18
2022-10-30T14:53:35.924Z,11.57
2022-10-30T14:56:12.240Z,7.32
2022-10-30T14:58:41.980Z,6.75
2022-10-30T15:01:34.861Z,11.07
2022-10-30T15:04:21.939Z,8.57
2022-10-30T15:06:59.659Z,9.48
2022-10-30T15:09:49.103Z,7.07
2022-10-30T15:12:43.587Z,11.48
2022-10-30T15:15:16.411Z,8.65
2022-10-30T15:17:49.984Z,8.48
2022-10-30T15:20:23.007Z,9.55
2022-10-30T15:22:56.258Z,8.15
2022-10-30T15:25:29.242Z,8.20
2022-10-30T15:28:00.316Z,8.85
2022-10-30T15:30:30.296Z,7.60
2022-10-30T15:33:01.548Z,8.98
2022-10-30T15:35:31.322Z,8.57
2022-10-30T15:38:06.012Z,15.05
2022-10-30T15:40:36.540Z,14.48
2022-10-30T15:43:08.883Z,10.43
2022-10-30T15:45:40.852Z,18.02
2022-10-30T15:48:26.301Z,19.52
2022-10-30T15:51:01.609Z,16.33
2022-10-30T15:56:04.837Z,13.35
2022-10-30T15:58:37.577Z,11.65
2022-10-30T16:01:06.915Z,34.20
2022-10-30T16:03:37.954Z,30.25
2022-10-30T16:06:14.748Z,26.17
2022-10-30T16:08:48.904Z,22.50
2022-10-30T16:11:18.481Z,22.88
2022-10-30T16:13:48.034Z,23.08
2022-10-30T16:16:22.961Z,26.38
2022-10-30T16:18:55.723Z,30.70
2022-10-30T16:21:29.691Z,33.47
2022-10-30T16:24:01.703Z,40.20
2022-10-30T16:26:33.973Z,40.20
2022-10-30T16:29:10.252Z,47.35
2022-10-30T16:31:40.578Z,27.83
2022-10-30T16:34:17.409Z,31.40
2022-10-30T16:36:47.066Z,28.40
2022-10-30T16:39:18.580Z,21.88
2022-10-30T16:41:48.187Z,19.23
2022-10-30T16:44:27.422Z,16.77
2022-10-30T16:46:59.613Z,18.17
2022-10-30T16:49:33.659Z,18.27
2022-10-30T16:52:06.714Z,19.38
2022-10-30T16:54:41.098Z,20.55
2022-10-30T16:57:17.801Z,21.65
2022-10-30T16:59:49.568Z,34.08
2022-10-30T17:02:22.536Z,50.72
2022-10-30T17:04:58.262Z,36.85
2022-10-30T17:09:59.328Z,49.70
2022-10-30T17:12:30.480Z,49.15
2022-10-30T17:15:12.749Z,42.58
2022-10-30T17:17:43.305Z,38.30
2022-10-30T17:20:31.098Z,38.92
2022-10-30T17:23:14.766Z,39.45
2022-10-30T17:26:13.354Z,38.05
2022-10-30T17:28:43.401Z,36.35
2022-10-30T17:31:31.233Z,40.15
2022-10-30T17:34:18.867Z,41.17
2022-10-30T17:36:50.885Z,59.40
2022-10-30T17:39:20.238Z,37.75
2022-10-30T17:41:49.915Z,38.17
2022-10-30T17:44:22.948Z,34.33
2022-10-30T17:46:52.755Z,43.50
2022-10-30T17:49:27.936Z,37.05
2022-10-30T17:51:59.210Z,39.38
2022-10-30T17:54:28.514Z,48.58
2022-10-30T17:56:58.940Z,46.97
2022-10-30T17:59:28.182Z,41.60
2022-10-30T18:01:57.856Z,42.58
2022-10-30T18:04:27.183Z,44.22
2022-10-30T18:06:58.398Z,42.40
2022-10-30T18:09:27.820Z,48.97
2022-10-30T18:11:57.221Z,57.03
2022-10-30T18:14:26.630Z,55.08
2022-10-30T18:16:55.990Z,55.42
2022-10-30T18:19:25.698Z,52.40
2022-10-30T18:21:55.017Z,55.28
2022-10-30T18:24:26.450Z,41.85
2022-10-30T18:26:56.931Z,50.95
2022-10-30T18:29:26.386Z,48.45
2022-10-30T18:31:55.723Z,52.22
2022-10-30T18:34:25.411Z,45.28
2022-10-30T18:36:54.621Z,46.25
2022-10-30T18:39:25.732Z,50.40
2022-10-30T18:41:56.467Z,49.10
2022-10-30T18:44:25.962Z,51.17
2022-10-30T18:47:00.078Z,53.05
2022-10-30T18:49:33.477Z,45.97
2022-10-30T18:52:03.029Z,45.60
2022-10-30T18:54:33.862Z,43.53
2022-10-30T18:57:03.543Z,47.40
2022-10-30T18:59:34.772Z,42.38
2022-10-30T19:02:04.306Z,50.50
2022-10-30T19:04:33.882Z,64.53
2022-10-30T19:07:03.998Z,55.70
2022-10-30T19:09:34.971Z,48.33
2022-10-30T19:12:04.252Z,39.42
2022-10-30T19:14:33.853Z,38.53
2022-10-30T19:17:03.230Z,36.47
2022-10-30T19:19:32.552Z,36.63
2022-10-30T19:22:02.034Z,35.92
2022-10-30T19:24:31.616Z,39.55
2022-10-30T19:27:03.485Z,39.38
2022-10-30T19:29:32.979Z,38.88
2022-10-30T19:32:02.487Z,36.80
2022-10-30T19:34:31.676Z,40.45
2022-10-30T19:37:01.329Z,36.08
2022-10-30T19:39:32.938Z,42.08
2022-10-30T19:42:04.165Z,38.10
2022-10-30T19:44:33.449Z,38.53
2022-10-30T19:47:03.032Z,38.28
2022-10-30T19:49:34.635Z,44.20
2022-10-30T19:52:04.249Z,42.33
2022-10-30T19:54:33.532Z,38.45
2022-10-30T19:57:04.467Z,47.65
2022-10-30T19:59:34.090Z,50.50
2022-10-30T20:02:03.587Z,57.15
2022-10-30T20:04:33.159Z,67.90
2022-10-30T20:07:02.853Z,74.32
2022-10-30T20:09:32.478Z,98.38
2022-10-30T20:12:03.191Z,94.35
2022-10-30T20:14:32.765Z,95.60
2022-10-30T20:17:02.234Z,105.25
2022-10-30T20:19:33.071Z,102.53
2022-10-30T20:22:02.570Z,88.57
2022-10-30T20:24:31.796Z,114.45
2022-10-30T20:27:01.161Z,114.68
2022-10-30T20:29:32.012Z,95.88
2022-10-30T20:32:01.204Z,93.28
2022-10-30T20:34:31.071Z,101.05
2022-10-30T20:37:00.304Z,96.80
2022-10-30T20:39:29.778Z,98.85
2022-10-30T20:41:59.241Z,105.70
2022-10-30T20:44:28.643Z,91.85
2022-10-30T20:46:59.342Z,87.45
2022-10-30T20:49:30.423Z,81.28
2022-10-30T20:51:59.683Z,82.93
2022-10-30T20:54:29.073Z,77.25
2022-10-30T20:56:58.415Z,70.47
2022-10-30T20:59:27.687Z,72.53
2022-10-30T21:01:58.691Z,69.80
2022-10-30T21:04:28.051Z,47.72
2022-10-30T21:06:57.728Z,54.67
2022-10-30T21:09:27.141Z,35.65
2022-10-30T21:11:56.552Z,43.38
2022-10-30T21:14:25.801Z,40.50
2022-10-30T21:16:55.028Z,41.78
2022-10-30T21:19:26.762Z,42.25
2022-10-30T21:21:58.459Z,36.08
2022-10-30T21:24:28.576Z,36.40
2022-10-30T21:26:57.958Z,36.15
2022-10-30T21:29:29.006Z,38.83
2022-10-30T21:32:02.120Z,39.33
2022-10-30T21:34:32.755Z,33.35
2022-10-30T21:37:02.199Z,32.45
2022-10-30T21:39:32.293Z,36.05
2022-10-30T21:42:01.686Z,37.17
2022-10-30T21:44:30.857Z,34.65
2022-10-30T21:47:00.158Z,47.00
2022-10-30T21:49:31.148Z,48.33
2022-10-30T21:52:00.468Z,36.80
2022-10-30T21:54:29.889Z,39.30
2022-10-30T21:56:59.222Z,43.70
2022-10-30T21:59:28.480Z,41.58
2022-10-30T22:01:57.965Z,38.10
2022-10-30T22:04:27.516Z,39.35
2022-10-30T22:06:58.180Z,40.70
2022-10-30T22:09:27.755Z,36.30
2022-10-30T22:11:57.124Z,38.75
2022-10-30T22:14:27.077Z,37.85
2022-10-30T22:16:56.532Z,39.85
2022-10-30T22:19:25.823Z,43.38
2022-10-30T22:21:55.126Z,38.20
2022-10-30T22:24:25.976Z,36.97
2022-10-30T22:26:55.302Z,41.55
2022-10-30T22:29:24.575Z,37.55
2022-10-30T22:32:03.264Z,42.20
2022-10-30T22:34:32.496Z,35.42
2022-10-30T22:37:01.961Z,33.80
2022-10-30T22:39:32.632Z,34.67
2022-10-30T22:42:07.646Z,44.40
2022-10-30T22:44:37.016Z,38.15
2022-10-30T22:47:06.514Z,39.70
2022-10-30T22:49:35.729Z,39.33
2022-10-30T22:52:05.291Z,35.35
2022-10-30T22:54:36.098Z,40.92
2022-10-30T22:57:05.397Z,41.50
2022-10-30T22:59:34.584Z,35.90
2022-10-30T23:02:04.129Z,37.22
2022-10-30T23:04:33.542Z,33.83
2022-10-30T23:07:09.023Z,34.75
2022-10-30T23:09:39.675Z,34.85
2022-10-30T23:12:09.265Z,39.30
2022-10-30T23:14:38.576Z,34.97
2022-10-30T23:17:08.133Z,41.53
2022-10-30T23:19:37.290Z,35.30
2022-10-30T23:22:06.817Z,35.10
2022-10-30T23:24:36.025Z,35.13
2022-10-30T23:27:06.798Z,38.88
2022-10-30T23:29:36.066Z,36.63
2022-10-30T23:32:05.734Z,39.15
2022-10-30T23:34:34.946Z,36.13
2022-10-30T23:37:04.290Z,32.05
2022-10-30T23:39:33.492Z,33.58
2022-10-30T23:42:02.889Z,34.85
2022-10-30T23:44:33.643Z,32.38
2022-10-30T23:47:03.190Z,32.60
2022-10-30T23:49:34.151Z,31.25
2022-10-30T23:52:03.789Z,29.45
2022-10-30T23:54:33.126Z,33.05
2022-10-30T23:57:02.661Z,31.65
2022-10-30T23:59:33.231Z,26.20
